Terminal Aerodrome Forecast
Issued by NWS San Angelo, TX

Home | Current Version | Previous Version | Text Only | Print | Product List | Glossary On
Versions: 1 2 3 4 5 6 7 8 9 10 11 12 13 14 15
000
FTUS44 KSJT 291100
TAFABI
TAF
KABI 291121Z 2912/3012 23007KT P6SM SCT250
     FM291800 25006KT P6SM SCT250
     FM292300 36005KT P6SM SCT250
     FM300800 01008KT P6SM SCT250
      TEMPO 3010/3012 SCT025=

USA.gov is the U.S. government's official web portal to all federal, state and local government web resources and services.